AirNav   Air Wisconsin Up To $57,000 Bonus
 
 607 users online  

61KY Schroder Airport
Owenton, Kentucky, USA

GOING TO OWENTON?


FAA INFORMATION EFFECTIVE 01 DECEMBER 2022

Location

FAA Identifier: 61KY
Lat/Long: 38-33-00.2430N 084-45-47.8080W
38-33.004050N 084-45.796800W
38.5500675,-84.7632800
(estimated)
Elevation: 910 ft. / 277 m (estimated)
Variation: 03W (1990)
From city: 4 miles E of OWENTON, KY
Time zone: UTC -5 (UTC -4 during Daylight Saving Time)
Zip code: 40359

Airport Operations

Airport use: Private use. Permission required prior to landing
Activation date: 04/1993
Control tower: no
ARTCC: INDIANAPOLIS CENTER
FSS: LOUISVILLE FLIGHT SERVICE STATION
Attendance: UNATNDD
Wind indicator: yes
Segmented circle: no

Airport Communications

WX AWOS-3 at K62 (20 nm NE): 123.825 (859-654-1345)

Nearby radio navigation aids

VOR radial/distance  VOR name  Freq  Var
FLMr258/22.0FALMOUTH VOR/DME117.0004W
FFTr020/(23.1)FRANKFORT VOR109.4003W
CVGr190/28.1CINCINNATI VORTAC117.3004W
HYKr339/37.6LEXINGTON VOR/DME112.6000E

Airport Services

Runway Information

Runway 17/35

Dimensions: 1900 x 60 ft. / 579 x 18 m
Surface: turf
RUNWAY 17  RUNWAY 35
Traffic pattern: leftleft
Displaced threshold: 100 ft.486 ft.
Obstructions: 5 ft. fence44 ft. road, 545 ft. from runway

Airport Ownership and Management from official FAA records

Ownership: Privately-owned
Owner: URBAN SCHRODER
425 HIGHLAND AVE
FT. MITCHELL, KY 41017
Phone 859-391-1924
Manager: URBAN SCHRODER
425 HIGHLAND AVE
FT. MITCHELL, KY 41017
Phone 859-391-1924

Airport Operational Statistics

Aircraft based on the field: 1
Single engine airplanes: 1
    

Additional Remarks

FOR CD CTC CINCINNATI APCH AT 859-372-6440

Instrument Procedures

There are no published instrument procedures at 61KY.

Some nearby airports with instrument procedures:

K62 - Gene Snyder Airport (20 nm NE)
KFFT - Capital City Airport (23 nm S)
27K - Georgetown-Scott County Regional Airport (24 nm SE)
0I8 - Cynthiana-Harrison County Airport (25 nm SE)
KCVG - Cincinnati/Northern Kentucky International Airport (30 nm N)
 
Loc | Ops | Rwys | IFR | FBO | Links
Com | Nav | Svcs | Stats | Notes
Area around 61KY (Schroder Airport)
 
Road maps at: MapQuest Bing Google
 
Aerial photo
No photo
 
Sectional chart

 
Airport distance calculator
Flying to Schroder Airport? Find the distance to fly.

From to 61KY

Sunrise and sunset
Times for 10-Dec-2022
 Local
(UTC-5)
 Zulu
(UTC)
Morning civil twilight07:1712:17
Sunrise07:4712:47
Sunset17:1722:17
Evening civil twilight17:4722:47

Current date and time
Zulu (UTC)  10-Dec-2022 09:00:47
Local (UTC-5)  10-Dec-2022 04:00:47
 
METAR
KK62 
20nm NE 
100835Z AUTO 00000KT 7SM OVC015 06/ A3017 RMK AO2
KFFT 
23nm S 
100853Z AUTO 32004KT 1/4SM FG VV002 06/05 A3017 RMK AO2 SLP218 T00560050 53010
K27K 
24nm SE 
100855Z AUTO 01003KT 1/2SM OVC002 05/05 A3017 RMK AO1
KCVG 
30nm N 
100852Z 03004KT 2 1/2SM BR OVC050 06/06 A3015 RMK AO2 SLP211 T00560056 50003 $
KLEX 
32nm S 
100854Z 34003KT 1/4SM R04/1200V1400FT FG VV001 03/02 A3016 RMK AO2 SLP215 T00330022 51006
KIMS 
35nm W 
100835Z AUTO 00000KT 3SM BR OVC007 06/06 A3018 RMK AO2
KLUK 
37nm NE 
100853Z AUTO 36006KT 3SM BR OVC025 07/06 A3019 RMK AO2 SLP223 T00720056 50005
TAF
KCVG 
30nm N 
100735Z 1008/1112 36003KT 3SM BR OVC012 FM101000 VRB03KT 1SM BR OVC003 FM101400 VRB03KT 2SM BR OVC004 FM101500 VRB03KT P6SM BKN007 OVC012 FM101800 21003KT P6SM BKN025 FM110100 24003KT P6SM OVC015 FM110400 26003KT P6SM VCSH OVC012 FM110600 30004KT P6SM OVC008
KLEX 
32nm S 
100559Z 1006/1106 00000KT 1 1/2SM BR BKN003 TEMPO 1006/1010 1/4SM FG OVC002 FM101600 22005KT P6SM OVC015 FM101800 23006KT P6SM OVC025 FM102200 23005KT P6SM OVC050
KLUK 
37nm NE 
100535Z 1006/1106 00000KT 3SM BR OVC011 FM100800 00000KT 1 1/2SM BR OVC007 FM101400 00000KT 3SM BR OVC008 FM101500 VRB03KT P6SM BKN010 OVC015 FM101800 21003KT P6SM BKN028 FM110100 24003KT P6SM OVC018 FM110400 26003KT P6SM VCSH OVC015
NOTAMs
Click for the latest NOTAMs
NOTAMs are issued by the DoD/FAA and will open in a separate window not controlled by AirNav.

 

 
 

Would you like to see your business listed on this page?

 If your business provides an interesting product or service to pilots, flight crews, aircraft, or users of the Schroder Airport, you should consider listing it here.  To start the listing process, click on the button below
 
Add a business
 

Other Pages about Schroder Airport

Update a link
 
Copyright © AirNav, LLC. All rights reserved. Privacy Policy  Contact